Aérodrome :
LOGIN :

S'inscrire | Disclaimer

   EN    FR    IT 

 










Légende :    VFR   VFR Marginal   IFR   IFR Intensif   IFR Très Intensif
Visi : 
Plafond : 
>= 8 km
>= 3000ft
5 à 8 km
1000 à 3000 ft
1500m à 5 km
500 à 1000 ft
800 à 1500m
200 à 500 ft
< 800m
< 200 ft
Symboles :   Orages  Brouillard  Fortes neiges  Fortes précipitations  Vent > 20 kt
SIGMETs :   Divers  Orages  Givrage  Turbulence  Onde Orograph.  Cendres Volcan.






- Altitude de l'aérodrome : 348 ft
- Code IATA : LDV


LFRJ - Landivisiau

DERNIER METAR :
  • 282100Z AUTO 09008KT CAVOK 15/09 Q1025 NOSIG

METARs EXPIRÉS :
  • 282030Z AUTO 08008KT CAVOK 16/09 Q1025 NOSIG
  • 282000Z AUTO 07008KT CAVOK 17/09 Q1025 NOSIG
  • 281930Z AUTO 07009KT CAVOK 18/10 Q1025 NOSIG
  • 281900Z AUTO 07009KT CAVOK 19/10 Q1025 NOSIG
  • 281830Z AUTO 05008KT CAVOK 18/12 Q1025 NOSIG

TAF TAF LFRJ
Valide du 28 à 21h jusqu'au 29 à 06h UTC


282000Z 2821/2906 08008KT CAVOK



MET'MAP, la Météo Aéronautique d'un coup d'oeil ! - Copyright ORBIFLY Décembre 2007 - Disclaimer

ORBIFLY MET'MAP TEAM :

Programmation & Développement : Alexandra Zaïnal
Sur une idée originale de : Baudouin d'Aumeries
Assistance à la programmation : Marc-Olivier Méhu
Soutien technique & logistique : Manuel Goepfert

Contact : metmap@orbifly.com




SOURCES & CREDITS :

   NOAA